メインページ
METAR-TAF:

METAR-TAF

空港 :

Grande Prairie, アルバータ州, カナダ

緯度: 55-11N, 経度: 118-53W, 海抜: 666m

現時点の気象観測

当レポートは21分前の11:00(UTC)に作成
無風
気温 -2°C
湿度 69%
気圧 1017 hPa
視程: 40.2km
高度10000ftの雲はほとんどない

METAR: CYQU 211100Z 00000KT 25SM FEW100 M02/M07 A3004 RMK AC1 SLP200

時間: 05:21 (11:21 UTC)

予報

当レポートは4時間43分前の06:38(UTC)に作成
予報は21日の 07時(UTC)から 21日の 19時(UTC)まで有効
の風 6kt
視程: 10km
高度10000ftの雲はほとんどない
21日の 07時(UTC)から 21日の 09時(UTC)まで徐々に
西/南西の風 5kt
21日の 1600時(UTC)から
南/南東の風 6kt
視程: 10km
高度12000ftの雲はほとんどない
高度16000ftの雲は散在している
高度22000ftの千切れ雲あり

TAF: CYQU 210638Z 2107/2119 18006KT P6SM FEW100 BECMG 2107/2109 24005KT FM211600 16006KT P6SM FEW120 SCT160 BKN220 RMK NXT FCST BY 211300Z

4,000以上の空港の気象観測と天気予報(METAR報とTAF報)

利用可能な観測所は地図上に黄色い丸と赤い丸で示す。

丸の上にカーソルを重ねると観測所名を参照できる。

次にクリックすると気象観測と天気予報を参照できる。

マップの切り替え:黒色「×」印の緑ボタンをクリックして拡大、「-」印の緑ボタンをクリックして縮小、緑色の三角印をクリックして隣りの地図に切り替え


METAR-TAF: